createdAt,value
2019-05-16T00:02:19.399Z,52.75
2019-05-16T00:04:50.100Z,53.25
2019-05-16T00:07:20.779Z,53.15
2019-05-16T00:09:51.445Z,53.55
2019-05-16T00:12:22.122Z,53.66
2019-05-16T00:14:52.757Z,53.56
2019-05-16T00:17:23.395Z,54.16
2019-05-16T00:19:54.082Z,54.57
2019-05-16T00:22:24.864Z,54.74
2019-05-16T00:24:57.951Z,54.88
2019-05-16T00:27:28.239Z,54.96
2019-05-16T00:30:00.164Z,55.18
2019-05-16T00:32:30.781Z,54.98
2019-05-16T00:35:01.466Z,54.95
2019-05-16T00:37:32.574Z,55.22
2019-05-16T00:40:03.441Z,54.89
2019-05-16T00:42:36.163Z,55.14
2019-05-16T00:45:09.181Z,55.21
2019-05-16T00:47:39.633Z,55.38
2019-05-16T00:50:10.558Z,55.48
2019-05-16T00:52:41.323Z,55.90
2019-05-16T00:55:11.994Z,55.71
2019-05-16T00:57:42.865Z,55.53
2019-05-16T01:00:14.875Z,55.53
2019-05-16T01:02:45.685Z,54.90
2019-05-16T01:05:19.668Z,55.58
2019-05-16T01:07:50.342Z,55.76
2019-05-16T01:10:21.056Z,56.01
2019-05-16T01:12:51.769Z,55.87
2019-05-16T01:15:22.634Z,55.73
2019-05-16T01:17:53.335Z,55.78
2019-05-16T01:20:24.204Z,55.84
2019-05-16T01:22:54.953Z,57.23
2019-05-16T01:25:25.521Z,57.10
2019-05-16T01:28:00.279Z,56.83
2019-05-16T01:30:30.918Z,56.91
2019-05-16T01:33:02.007Z,57.14
2019-05-16T01:35:33.014Z,57.13
2019-05-16T01:38:03.642Z,57.30
2019-05-16T01:40:34.338Z,57.51
2019-05-16T01:43:05.133Z,57.91
2019-05-16T01:45:38.310Z,57.54
2019-05-16T01:48:08.478Z,57.53
2019-05-16T01:50:39.100Z,57.30
2019-05-16T01:53:09.726Z,57.22
2019-05-16T01:55:40.392Z,57.22
2019-05-16T01:58:11.081Z,57.49
2019-05-16T02:00:52.391Z,57.09
2019-05-16T02:03:14.912Z,57.26
2019-05-16T02:05:47.930Z,57.85
2019-05-16T02:08:18.376Z,57.80
2019-05-16T02:10:49.075Z,57.74
2019-05-16T02:13:19.747Z,57.36
2019-05-16T02:15:50.482Z,58.11
2019-05-16T02:18:21.030Z,58.35
2019-05-16T02:20:51.719Z,58.04
2019-05-16T02:23:24.642Z,57.80
2019-05-16T02:25:55.133Z,57.46
2019-05-16T02:28:31.345Z,57.82
2019-05-16T02:31:00.905Z,58.28
2019-05-16T02:33:31.637Z,58.25
2019-05-16T02:36:03.727Z,57.85
2019-05-16T02:38:34.388Z,58.42
2019-05-16T02:41:05.016Z,58.04
2019-05-16T02:43:35.789Z,57.81
2019-05-16T02:46:06.510Z,57.51
2019-05-16T02:48:37.321Z,57.29
2019-05-16T02:51:10.855Z,57.58
2019-05-16T02:53:41.657Z,57.26
2019-05-16T02:56:12.651Z,56.39
2019-05-16T02:58:44.963Z,56.96
2019-05-16T03:01:21.702Z,57.17
2019-05-16T03:03:52.549Z,57.04
2019-05-16T03:06:24.409Z,57.22
2019-05-16T03:08:55.591Z,56.92
2019-05-16T03:11:26.221Z,57.23
2019-05-16T03:14:00.389Z,56.57
2019-05-16T03:16:31.929Z,56.69
2019-05-16T03:19:04.439Z,57.12
2019-05-16T03:21:35.201Z,56.71
2019-05-16T03:24:05.993Z,56.11
2019-05-16T03:26:36.744Z,56.19
2019-05-16T03:29:11.279Z,55.77
2019-05-16T03:31:44.600Z,55.69
2019-05-16T03:34:16.737Z,55.64
2019-05-16T03:36:46.910Z,55.38
2019-05-16T03:39:22.168Z,55.64
2019-05-16T03:41:53.265Z,54.88
2019-05-16T03:44:31.746Z,54.91
2019-05-16T03:47:02.914Z,55.72
2019-05-16T03:49:33.683Z,55.07
2019-05-16T03:52:04.281Z,55.31
2019-05-16T03:54:35.067Z,55.02
2019-05-16T03:57:11.358Z,55.08
2019-05-16T03:59:41.171Z,54.86
2019-05-16T04:02:12.539Z,54.74
2019-05-16T04:04:43.212Z,54.81
2019-05-16T04:07:13.991Z,55.22
2019-05-16T04:09:44.778Z,55.44
2019-05-16T04:12:17.483Z,55.63
2019-05-16T04:15:01.756Z,55.66
2019-05-16T04:17:35.094Z,55.53
2019-05-16T04:20:06.922Z,55.82
2019-05-16T04:22:40.605Z,55.71
2019-05-16T04:25:11.325Z,53.60
2019-05-16T04:27:42.530Z,54.97
2019-05-16T04:30:15.128Z,54.86
2019-05-16T04:32:45.819Z,54.60
2019-05-16T04:35:16.485Z,53.78
2019-05-16T04:37:47.120Z,53.10
2019-05-16T04:40:17.886Z,51.17
2019-05-16T04:42:51.696Z,50.98
2019-05-16T04:45:23.452Z,50.97
2019-05-16T04:47:54.118Z,51.11
2019-05-16T04:50:24.749Z,50.04
2019-05-16T04:52:55.433Z,49.06
2019-05-16T04:55:31.385Z,49.78
2019-05-16T04:58:01.471Z,47.57
2019-05-16T05:00:36.246Z,46.65
2019-05-16T05:03:07.013Z,46.53
2019-05-16T05:05:41.398Z,47.42
2019-05-16T05:08:12.691Z,46.63
2019-05-16T05:10:43.329Z,45.88
2019-05-16T05:13:14.849Z,45.67
2019-05-16T05:15:45.454Z,45.66
2019-05-16T05:18:20.804Z,45.11
2019-05-16T05:20:53.986Z,45.11
2019-05-16T05:23:32.556Z,45.25
2019-05-16T05:26:03.537Z,45.87
2019-05-16T05:28:40.176Z,44.59
2019-05-16T05:31:12.678Z,44.66
2019-05-16T05:33:44.373Z,44.47
2019-05-16T05:36:15.044Z,45.06
2019-05-16T05:39:08.885Z,44.68
2019-05-16T05:41:33.928Z,43.28
2019-05-16T05:44:04.592Z,43.83
2019-05-16T05:46:36.209Z,43.50
2019-05-16T05:49:10.270Z,44.68
2019-05-16T05:51:52.115Z,43.59
2019-05-16T05:54:22.816Z,44.17
2019-05-16T05:56:53.436Z,43.10
2019-05-16T05:59:25.158Z,43.32
2019-05-16T06:02:00.549Z,44.04
2019-05-16T06:04:30.608Z,44.00
2019-05-16T06:07:01.443Z,44.07
2019-05-16T06:09:33.078Z,44.73
2019-05-16T06:12:07.450Z,43.92
2019-05-16T06:14:37.893Z,44.04
2019-05-16T06:17:11.276Z,43.70
2019-05-16T06:19:40.910Z,45.04
2019-05-16T06:22:11.480Z,45.45
2019-05-16T06:24:54.713Z,44.82
2019-05-16T06:27:25.346Z,45.42
2019-05-16T06:29:57.485Z,45.18
2019-05-16T06:32:30.534Z,44.74
2019-05-16T06:35:01.162Z,44.48
2019-05-16T06:37:31.767Z,44.80
2019-05-16T06:40:02.505Z,44.89
2019-05-16T06:42:33.166Z,45.37
2019-05-16T06:45:06.421Z,44.85
2019-05-16T06:47:39.725Z,44.55
2019-05-16T06:50:11.362Z,44.96
2019-05-16T06:52:45.822Z,45.05
2019-05-16T06:55:15.971Z,45.02
2019-05-16T06:57:46.686Z,45.26
2019-05-16T07:00:21.071Z,45.89
2019-05-16T07:03:00.409Z,46.06
2019-05-16T07:05:30.980Z,45.80
2019-05-16T07:08:01.685Z,45.49
2019-05-16T07:10:32.492Z,46.33
2019-05-16T07:13:03.205Z,46.09
2019-05-16T07:15:40.213Z,46.83
2019-05-16T07:18:13.201Z,46.45
2019-05-16T07:20:43.322Z,46.35
2019-05-16T07:23:13.892Z,47.20
2019-05-16T07:25:50.246Z,47.01
2019-05-16T07:28:21.907Z,47.50
2019-05-16T07:30:56.218Z,47.66
2019-05-16T07:33:30.946Z,47.78
2019-05-16T07:36:00.885Z,47.05
2019-05-16T07:38:40.412Z,46.62
2019-05-16T07:41:16.180Z,46.16
2019-05-16T07:43:46.916Z,46.82
2019-05-16T07:46:17.567Z,46.51
2019-05-16T07:48:51.390Z,45.92
2019-05-16T07:51:20.880Z,46.69
2019-05-16T07:53:51.465Z,46.40
2019-05-16T07:56:25.972Z,46.64
2019-05-16T07:58:56.607Z,47.01
2019-05-16T08:01:30.531Z,47.23
2019-05-16T08:04:02.837Z,46.73
2019-05-16T08:06:34.680Z,46.65
2019-05-16T08:09:07.897Z,47.23
2019-05-16T08:11:40.868Z,45.98
2019-05-16T08:14:11.449Z,46.69
2019-05-16T08:16:44.142Z,46.78
2019-05-16T08:19:16.756Z,47.11
2019-05-16T08:21:47.429Z,46.46
2019-05-16T08:24:20.427Z,47.09
2019-05-16T08:26:51.558Z,46.18
2019-05-16T08:29:24.256Z,46.28
2019-05-16T08:31:54.914Z,46.73
2019-05-16T08:34:25.566Z,47.09
2019-05-16T08:36:56.408Z,46.87
2019-05-16T08:39:27.089Z,46.99
2019-05-16T08:42:07.097Z,46.02
2019-05-16T08:44:32.347Z,46.39
2019-05-16T08:49:34.968Z,46.03
2019-05-16T08:50:11.874Z,45.91
2019-05-16T08:52:05.640Z,46.27
2019-05-16T08:54:36.328Z,46.29
2019-05-16T08:57:24.354Z,45.71
2019-05-16T08:59:41.123Z,45.46
2019-05-16T09:02:36.301Z,46.11
2019-05-16T09:05:05.238Z,45.54
2019-05-16T09:07:43.319Z,45.98
2019-05-16T09:10:45.573Z,45.34
2019-05-16T09:12:47.720Z,45.46
2019-05-16T09:15:18.628Z,45.19
2019-05-16T09:17:49.560Z,45.14
2019-05-16T09:20:20.359Z,46.25
2019-05-16T09:22:53.029Z,45.73
2019-05-16T09:25:23.764Z,46.08
2019-05-16T09:27:56.923Z,45.67
2019-05-16T09:30:27.585Z,45.53
2019-05-16T09:32:58.919Z,44.16
2019-05-16T09:35:31.892Z,44.83
2019-05-16T09:38:02.546Z,43.56
2019-05-16T09:40:33.182Z,43.46
2019-05-16T09:43:03.815Z,43.55
2019-05-16T09:45:38.142Z,45.42
2019-05-16T09:48:08.851Z,43.33
2019-05-16T09:50:39.633Z,43.62
2019-05-16T09:53:10.354Z,43.53
2019-05-16T09:55:41.160Z,43.65
2019-05-16T09:58:18.742Z,43.77
2019-05-16T10:00:50.689Z,44.23
2019-05-16T10:03:30.643Z,43.41
2019-05-16T10:06:04.597Z,43.28
2019-05-16T10:08:37.413Z,43.53
2019-05-16T10:11:07.822Z,44.16
2019-05-16T10:13:38.430Z,43.92
2019-05-16T10:16:12.307Z,43.80
2019-05-16T10:18:47.616Z,44.90
2019-05-16T10:21:20.787Z,44.40
2019-05-16T10:23:51.410Z,43.59
2019-05-16T10:26:23.003Z,43.75
2019-05-16T10:28:54.571Z,44.40
2019-05-16T10:31:44.880Z,44.58
2019-05-16T10:34:07.637Z,44.41
2019-05-16T10:36:38.911Z,44.14
2019-05-16T10:39:09.620Z,44.19
2019-05-16T10:41:42.299Z,44.44
2019-05-16T10:44:17.495Z,44.44
2019-05-16T10:46:48.408Z,45.13
2019-05-16T10:49:33.180Z,45.56
2019-05-16T10:51:51.355Z,45.62
2019-05-16T10:54:24.060Z,44.91
2019-05-16T10:56:57.686Z,44.69
2019-05-16T11:02:01.087Z,45.35
2019-05-16T11:04:49.554Z,45.42
2019-05-16T11:07:05.100Z,45.56
2019-05-16T11:09:39.427Z,45.14
2019-05-16T11:12:10.156Z,45.45
2019-05-16T11:14:47.827Z,45.44
2019-05-16T11:17:19.256Z,45.40
2019-05-16T11:19:50.010Z,46.26
2019-05-16T11:22:20.678Z,45.14
2019-05-16T11:24:51.357Z,44.96
2019-05-16T11:27:23.035Z,45.46
2019-05-16T11:29:56.607Z,45.26
2019-05-16T11:32:27.171Z,44.89
2019-05-16T11:34:57.955Z,45.28
2019-05-16T11:37:40.946Z,45.61
2019-05-16T11:40:17.978Z,45.25
2019-05-16T11:43:06.748Z,45.49
2019-05-16T11:45:28.044Z,46.39
2019-05-16T11:47:58.629Z,46.06
2019-05-16T11:50:37.314Z,45.77
2019-05-16T11:53:08.128Z,46.41
2019-05-16T11:55:51.806Z,46.27
2019-05-16T11:58:12.185Z,46.55
2019-05-16T12:00:42.894Z,46.04
2019-05-16T12:03:13.599Z,46.58
2019-05-16T12:05:48.745Z,46.89
2019-05-16T12:08:19.395Z,47.01
2019-05-16T12:10:55.151Z,47.04
2019-05-16T12:13:32.378Z,47.36
2019-05-16T12:15:58.191Z,47.87
2019-05-16T12:18:28.792Z,47.73
2019-05-16T12:20:59.324Z,47.38
2019-05-16T12:23:31.833Z,48.62
2019-05-16T12:26:02.563Z,48.34
2019-05-16T12:28:33.137Z,47.99
2019-05-16T12:31:07.357Z,48.49
2019-05-16T12:33:38.075Z,48.74
2019-05-16T12:36:08.789Z,48.60
2019-05-16T12:38:39.368Z,48.80
2019-05-16T12:41:10.087Z,48.53
2019-05-16T12:43:57.801Z,48.84
2019-05-16T12:46:27.448Z,48.63
2019-05-16T12:48:58.015Z,47.52
2019-05-16T12:51:28.761Z,46.61
2019-05-16T12:54:03.680Z,46.97
2019-05-16T12:56:37.741Z,47.33
2019-05-16T12:59:21.674Z,47.47
2019-05-16T13:01:51.197Z,47.15
2019-05-16T13:04:21.802Z,46.96
2019-05-16T13:06:52.406Z,47.94
2019-05-16T13:09:28.116Z,47.41
2019-05-16T13:12:00.778Z,47.21
2019-05-16T13:14:31.434Z,47.50
2019-05-16T13:17:02.053Z,48.32
2019-05-16T13:19:34.320Z,47.76
2019-05-16T13:22:07.404Z,47.36
2019-05-16T13:24:47.701Z,48.02
2019-05-16T13:27:22.717Z,48.49
2019-05-16T13:29:49.523Z,48.50
2019-05-16T13:32:20.112Z,49.17
2019-05-16T13:34:50.732Z,48.54
2019-05-16T13:37:21.421Z,49.61
2019-05-16T13:39:52.057Z,50.34
2019-05-16T13:42:22.718Z,51.83
2019-05-16T13:44:53.400Z,53.05
2019-05-16T13:47:26.662Z,52.49
2019-05-16T13:49:58.370Z,50.93
2019-05-16T13:52:29.045Z,52.83
2019-05-16T13:54:59.590Z,55.45
2019-05-16T13:57:30.273Z,53.84
2019-05-16T14:00:01.014Z,53.06
2019-05-16T14:02:37.335Z,53.07
2019-05-16T14:05:07.758Z,51.06
2019-05-16T14:07:39.033Z,50.50
2019-05-16T14:10:10.082Z,49.84
2019-05-16T14:12:40.752Z,49.10
2019-05-16T14:15:11.542Z,48.60
2019-05-16T14:17:42.320Z,48.49
2019-05-16T14:20:14.930Z,48.44
2019-05-16T14:22:46.772Z,49.24
2019-05-16T14:25:17.425Z,49.99
2019-05-16T14:27:49.211Z,50.02
2019-05-16T14:30:20.676Z,50.17
2019-05-16T14:32:51.486Z,50.04
2019-05-16T14:35:22.382Z,49.35
2019-05-16T14:37:57.388Z,48.80
2019-05-16T14:40:27.694Z,48.64
2019-05-16T14:42:58.253Z,48.86
2019-05-16T14:45:31.050Z,49.20
2019-05-16T14:48:03.753Z,49.78
2019-05-16T14:50:34.329Z,49.66
2019-05-16T14:53:07.275Z,49.76
2019-05-16T14:55:38.585Z,49.71
2019-05-16T14:58:09.217Z,49.70
2019-05-16T15:00:39.915Z,49.81
2019-05-16T15:03:10.731Z,49.29
2019-05-16T15:05:42.902Z,49.46
2019-05-16T15:08:13.626Z,48.32
2019-05-16T15:10:46.746Z,48.66
2019-05-16T15:13:22.042Z,48.22
2019-05-16T15:15:52.719Z,48.91
2019-05-16T15:18:23.558Z,48.69
2019-05-16T15:20:57.526Z,48.54
2019-05-16T15:23:28.646Z,48.13
2019-05-16T15:25:59.705Z,48.12
2019-05-16T15:28:32.471Z,47.22
2019-05-16T15:31:03.192Z,47.71
2019-05-16T15:33:33.867Z,48.05
2019-05-16T15:36:08.244Z,47.84
2019-05-16T15:38:38.180Z,48.14
2019-05-16T15:41:09.316Z,48.08
2019-05-16T15:43:39.922Z,47.44
2019-05-16T15:46:17.275Z,47.34
2019-05-16T15:48:49.016Z,47.80
2019-05-16T15:51:21.306Z,47.63
2019-05-16T15:53:52.584Z,47.66
2019-05-16T15:56:23.225Z,48.50
2019-05-16T15:58:54.636Z,48.31
2019-05-16T16:01:28.573Z,48.77
2019-05-16T16:04:00.245Z,48.69
2019-05-16T16:06:30.966Z,48.05
2019-05-16T16:09:01.756Z,48.88
2019-05-16T16:11:33.972Z,48.88
2019-05-16T16:14:07.119Z,48.70
2019-05-16T16:16:37.822Z,48.10
2019-05-16T16:19:08.420Z,48.69
2019-05-16T16:21:41.141Z,49.07
2019-05-16T16:24:13.772Z,48.54
2019-05-16T16:26:46.921Z,48.33
2019-05-16T16:29:17.047Z,47.77
2019-05-16T16:31:47.841Z,47.84
2019-05-16T16:34:19.523Z,48.49
2019-05-16T16:36:50.336Z,48.80
2019-05-16T16:39:21.046Z,48.26
2019-05-16T16:41:51.778Z,47.52
2019-05-16T16:44:23.428Z,48.41
2019-05-16T16:46:57.315Z,48.94
2019-05-16T16:49:46.963Z,49.37
2019-05-16T16:52:21.316Z,48.62
2019-05-16T16:55:01.358Z,48.24
2019-05-16T16:57:32.143Z,48.30
2019-05-16T17:00:02.888Z,48.10
2019-05-16T17:02:40.050Z,47.99
2019-05-16T17:05:13.190Z,49.05
2019-05-16T17:07:45.183Z,49.20
2019-05-16T17:10:18.485Z,48.58
2019-05-16T17:12:49.232Z,48.90
2019-05-16T17:15:20.178Z,48.33
2019-05-16T17:17:51.020Z,48.33
2019-05-16T17:20:21.983Z,48.72
2019-05-16T17:22:52.977Z,48.43
2019-05-16T17:25:23.666Z,49.13
2019-05-16T17:27:57.283Z,48.66
2019-05-16T17:30:28.118Z,48.76
2019-05-16T17:32:58.858Z,48.74
2019-05-16T17:35:34.240Z,48.22
2019-05-16T17:38:06.690Z,48.75
2019-05-16T17:40:40.712Z,49.69
2019-05-16T17:43:11.465Z,49.66
2019-05-16T17:45:43.200Z,49.69
2019-05-16T17:48:20.153Z,49.49
2019-05-16T17:50:51.137Z,49.26
2019-05-16T17:53:21.777Z,49.00
2019-05-16T17:55:52.485Z,49.72
2019-05-16T17:58:23.192Z,50.24
2019-05-16T18:01:00.198Z,50.58
2019-05-16T18:03:29.975Z,51.07
2019-05-16T18:06:00.853Z,50.41
2019-05-16T18:08:32.517Z,50.57
2019-05-16T18:11:07.140Z,50.36
2019-05-16T18:13:37.783Z,50.98
2019-05-16T18:16:09.563Z,50.95
2019-05-16T18:18:42.562Z,50.95
2019-05-16T18:21:13.259Z,51.32
2019-05-16T18:23:44.086Z,51.59
2019-05-16T18:26:17.179Z,51.69
2019-05-16T18:28:48.157Z,52.52
2019-05-16T18:31:19.126Z,52.68
2019-05-16T18:33:50.369Z,52.73
2019-05-16T18:36:21.766Z,53.86
2019-05-16T18:38:52.908Z,54.41
2019-05-16T18:41:24.083Z,55.84
2019-05-16T18:43:56.590Z,55.58
2019-05-16T18:46:29.993Z,55.72
2019-05-16T18:49:00.760Z,55.85
2019-05-16T18:51:31.669Z,56.51
2019-05-16T18:54:02.321Z,57.26
2019-05-16T18:56:33.313Z,56.95
2019-05-16T18:59:07.165Z,57.08
2019-05-16T19:01:40.403Z,57.35
2019-05-16T19:04:18.011Z,57.83
2019-05-16T19:06:51.886Z,58.23
2019-05-16T19:09:23.706Z,58.94
2019-05-16T19:11:56.600Z,61.64
2019-05-16T19:14:27.852Z,63.20
2019-05-16T19:17:00.850Z,66.15
2019-05-16T19:19:33.627Z,65.98
2019-05-16T19:22:06.559Z,67.44
2019-05-16T19:24:38.464Z,68.77
2019-05-16T19:27:09.439Z,69.35
2019-05-16T19:29:40.090Z,69.95
2019-05-16T19:32:10.930Z,70.42
2019-05-16T19:34:42.109Z,71.80
2019-05-16T19:37:12.861Z,72.50
2019-05-16T19:39:46.277Z,71.49
2019-05-16T19:42:17.320Z,72.29
2019-05-16T19:44:49.191Z,72.85
2019-05-16T19:47:20.126Z,72.13
2019-05-16T19:49:50.786Z,72.68
2019-05-16T19:52:21.429Z,71.16
2019-05-16T19:54:53.035Z,71.76
2019-05-16T19:57:23.981Z,72.25
2019-05-16T19:59:56.707Z,71.86
2019-05-16T20:02:27.949Z,71.59
2019-05-16T20:04:59.508Z,72.26
2019-05-16T20:07:30.283Z,72.97
2019-05-16T20:10:01.008Z,72.54
2019-05-16T20:12:31.544Z,72.00
2019-05-16T20:15:07.995Z,73.40
2019-05-16T20:17:37.740Z,73.11
2019-05-16T20:20:11.261Z,72.61
2019-05-16T20:22:41.879Z,72.11
2019-05-16T20:25:12.975Z,72.64
2019-05-16T20:27:43.688Z,72.69
2019-05-16T20:30:17.120Z,73.25
2019-05-16T20:32:48.278Z,72.86
2019-05-16T20:35:19.071Z,73.92
2019-05-16T20:37:55.224Z,73.59
2019-05-16T20:40:26.581Z,73.73
2019-05-16T20:42:59.626Z,73.74
2019-05-16T20:45:36.224Z,73.83
2019-05-16T20:48:14.657Z,74.09
2019-05-16T20:50:41.127Z,73.81
2019-05-16T20:53:11.826Z,74.33
2019-05-16T20:55:51.783Z,74.06
2019-05-16T20:58:22.469Z,74.42
2019-05-16T21:00:53.080Z,75.23
2019-05-16T21:03:23.682Z,75.09
2019-05-16T21:05:58.277Z,75.93
2019-05-16T21:08:33.100Z,75.09
2019-05-16T21:11:06.598Z,74.61
2019-05-16T21:13:37.494Z,74.92
2019-05-16T21:16:16.283Z,74.17
2019-05-16T21:18:47.068Z,74.09
2019-05-16T21:21:19.337Z,75.18
2019-05-16T21:23:50.186Z,74.44
2019-05-16T21:26:20.872Z,75.08
2019-05-16T21:28:53.619Z,75.45
2019-05-16T21:31:27.560Z,75.19
2019-05-16T21:33:57.937Z,75.24
2019-05-16T21:36:28.530Z,75.71
2019-05-16T21:38:59.244Z,75.71
2019-05-16T21:41:40.055Z,76.09
2019-05-16T21:44:11.050Z,76.11
2019-05-16T21:46:41.771Z,76.55
2019-05-16T21:49:12.844Z,77.34
2019-05-16T21:51:43.510Z,76.37
2019-05-16T21:54:14.321Z,76.24
2019-05-16T21:56:46.797Z,76.68
2019-05-16T21:59:17.931Z,77.03
2019-05-16T22:01:56.590Z,76.56
2019-05-16T22:04:39.575Z,76.97
2019-05-16T22:07:12.238Z,77.18
2019-05-16T22:09:46.622Z,77.53
2019-05-16T22:12:19.940Z,77.69
2019-05-16T22:14:52.786Z,78.13
2019-05-16T22:17:27.383Z,77.32
2019-05-16T22:19:59.009Z,77.09
2019-05-16T22:22:30.885Z,77.78
2019-05-16T22:25:02.788Z,77.66
2019-05-16T22:27:33.927Z,77.34
2019-05-16T22:30:18.258Z,76.00
2019-05-16T22:32:49.369Z,76.34
2019-05-16T22:35:20.485Z,75.97
2019-05-16T22:37:55.445Z,75.92
2019-05-16T22:40:29.072Z,76.02
2019-05-16T22:43:00.255Z,76.54
2019-05-16T22:45:31.044Z,76.94
2019-05-16T22:48:08.793Z,77.07
2019-05-16T22:50:39.894Z,76.56
2019-05-16T22:53:11.632Z,76.82
2019-05-16T22:55:42.517Z,77.64
2019-05-16T22:58:13.261Z,78.00
2019-05-16T23:00:44.002Z,77.22
2019-05-16T23:03:14.573Z,77.62
2019-05-16T23:05:47.288Z,76.82
2019-05-16T23:08:17.557Z,77.13
2019-05-16T23:10:48.263Z,76.79
2019-05-16T23:13:18.878Z,77.54
2019-05-16T23:15:57.233Z,76.59
2019-05-16T23:18:27.824Z,76.99
2019-05-16T23:20:58.423Z,76.48
2019-05-16T23:23:29.290Z,76.20
2019-05-16T23:25:59.866Z,76.95
2019-05-16T23:28:30.429Z,77.49
2019-05-16T23:31:01.040Z,77.72
2019-05-16T23:33:31.705Z,77.73
2019-05-16T23:36:02.681Z,77.39
2019-05-16T23:38:33.258Z,77.40
2019-05-16T23:41:06.362Z,76.92
2019-05-16T23:43:37.376Z,76.61
2019-05-16T23:46:09.149Z,76.79
2019-05-16T23:48:39.909Z,77.24
2019-05-16T23:51:10.669Z,78.21
2019-05-16T23:53:42.916Z,78.34
2019-05-16T23:56:13.432Z,77.53
2019-05-16T23:58:44.116Z,77.55
